sensor_id;sensor_type;location;lat;lon;timestamp;temperature;humidity
39849;DHT22;25518;47.878;15.914;2022-10-16T10:50:48;15.50;99.90
39849;DHT22;25518;47.878;15.914;2022-10-16T10:53:41;15.70;99.90
39849;DHT22;25518;47.878;15.914;2022-10-16T10:58:50;16.10;99.90
39849;DHT22;25518;47.878;15.914;2022-10-16T11:02:00;16.30;99.90
39849;DHT22;25518;47.878;15.914;2022-10-16T11:04:29;16.60;99.90
39849;DHT22;25518;47.878;15.914;2022-10-16T11:07:04;16.90;99.90
39849;DHT22;25518;47.878;15.914;2022-10-16T11:09:36;17.10;99.90
39849;DHT22;25518;47.878;15.914;2022-10-16T11:17:12;17.70;99.90
39849;DHT22;25518;47.878;15.914;2022-10-16T11:19:57;17.90;99.90
39849;DHT22;25518;47.878;15.914;2022-10-16T11:22:34;18.20;99.90
39849;DHT22;25518;47.878;15.914;2022-10-16T11:25:16;18.40;99.90
39849;DHT22;25518;47.878;15.914;2022-10-16T11:27:50;18.60;99.90
39849;DHT22;25518;47.878;15.914;2022-10-16T11:30:20;18.80;99.90
39849;DHT22;25518;47.878;15.914;2022-10-16T11:33:04;18.80;99.90
39849;DHT22;25518;47.878;15.914;2022-10-16T11:42:17;19.10;99.90
39849;DHT22;25518;47.878;15.914;2022-10-16T11:44:27;19.10;99.90
39849;DHT22;25518;47.878;15.914;2022-10-16T11:49:32;19.20;99.90
39849;DHT22;25518;47.878;15.914;2022-10-16T11:57:31;19.60;99.90
39849;DHT22;25518;47.878;15.914;2022-10-16T12:06:34;19.90;99.90
39849;DHT22;25518;47.878;15.914;2022-10-16T12:08:49;19.80;99.90
39849;DHT22;25518;47.878;15.914;2022-10-16T12:11:35;19.70;99.90
39849;DHT22;25518;47.878;15.914;2022-10-16T12:16:38;19.50;99.90
39849;DHT22;25518;47.878;15.914;2022-10-16T12:19:15;19.30;99.90
39849;DHT22;25518;47.878;15.914;2022-10-16T12:21:43;19.10;99.90
39849;DHT22;25518;47.878;15.914;2022-10-16T12:24:36;19.00;99.90
39849;DHT22;25518;47.878;15.914;2022-10-16T12:27:06;19.20;99.90
39849;DHT22;25518;47.878;15.914;2022-10-16T12:29:41;19.50;99.90
39849;DHT22;25518;47.878;15.914;2022-10-16T12:34:54;20.20;99.90
39849;DHT22;25518;47.878;15.914;2022-10-16T12:37:24;20.10;99.90
39849;DHT22;25518;47.878;15.914;2022-10-16T12:39:53;19.80;99.90
39849;DHT22;25518;47.878;15.914;2022-10-16T12:42:32;19.60;99.90
39849;DHT22;25518;47.878;15.914;2022-10-16T12:44:59;19.50;99.90
39849;DHT22;25518;47.878;15.914;2022-10-16T12:50:00;19.00;99.90
39849;DHT22;25518;47.878;15.914;2022-10-16T12:52:34;18.90;99.90
39849;DHT22;25518;47.878;15.914;2022-10-16T12:55:01;18.70;99.90
39849;DHT22;25518;47.878;15.914;2022-10-16T12:57:31;18.60;99.90
39849;DHT22;25518;47.878;15.914;2022-10-16T13:00:24;17.80;99.90
39849;DHT22;25518;47.878;15.914;2022-10-16T13:04:00;18.40;99.90
39849;DHT22;25518;47.878;15.914;2022-10-16T13:16:58;20.40;99.90
39849;DHT22;25518;47.878;15.914;2022-10-16T13:19:38;21.00;99.90
39849;DHT22;25518;47.878;15.914;2022-10-16T13:22:51;21.40;99.90
39849;DHT22;25518;47.878;15.914;2022-10-16T13:30:27;22.20;99.90
39849;DHT22;25518;47.878;15.914;2022-10-16T13:35:29;22.20;99.90
39849;DHT22;25518;47.878;15.914;2022-10-16T13:38:21;22.70;99.90
39849;DHT22;25518;47.878;15.914;2022-10-16T13:41:05;22.90;99.90
39849;DHT22;25518;47.878;15.914;2022-10-16T13:46:06;23.40;99.90
39849;DHT22;25518;47.878;15.914;2022-10-16T13:48:33;23.60;99.90
39849;DHT22;25518;47.878;15.914;2022-10-16T13:51:02;23.70;99.90
39849;DHT22;25518;47.878;15.914;2022-10-16T13:53:30;24.20;99.90
39849;DHT22;25518;47.878;15.914;2022-10-16T13:55:56;24.50;99.90
39849;DHT22;25518;47.878;15.914;2022-10-16T13:58:22;24.90;99.90
39849;DHT22;25518;47.878;15.914;2022-10-16T14:01:00;25.00;99.90
39849;DHT22;25518;47.878;15.914;2022-10-16T14:03:27;24.70;99.90
39849;DHT22;25518;47.878;15.914;2022-10-16T14:05:56;24.60;99.90
39849;DHT22;25518;47.878;15.914;2022-10-16T14:08:24;24.70;99.90
39849;DHT22;25518;47.878;15.914;2022-10-16T14:10:54;25.30;99.90
39849;DHT22;25518;47.878;15.914;2022-10-16T14:13:29;24.90;99.90
39849;DHT22;25518;47.878;15.914;2022-10-16T14:15:56;24.70;99.90
39849;DHT22;25518;47.878;15.914;2022-10-16T14:18:25;24.60;99.90
39849;DHT22;25518;47.878;15.914;2022-10-16T14:20:53;24.80;99.90
39849;DHT22;25518;47.878;15.914;2022-10-16T14:23:21;24.90;99.90
39849;DHT22;25518;47.878;15.914;2022-10-16T14:25:47;24.70;99.90
39849;DHT22;25518;47.878;15.914;2022-10-16T14:28:17;24.60;99.90
39849;DHT22;25518;47.878;15.914;2022-10-16T14:31:00;25.00;99.90
39849;DHT22;25518;47.878;15.914;2022-10-16T14:36:03;25.30;99.90
39849;DHT22;25518;47.878;15.914;2022-10-16T14:38:31;24.90;99.90
39849;DHT22;25518;47.878;15.914;2022-10-16T14:40:59;25.00;99.90
39849;DHT22;25518;47.878;15.914;2022-10-16T14:46:00;25.20;99.90
39849;DHT22;25518;47.878;15.914;2022-10-16T14:48:28;24.90;99.90
39849;DHT22;25518;47.878;15.914;2022-10-16T14:50:54;24.80;99.90
39849;DHT22;25518;47.878;15.914;2022-10-16T14:53:20;24.00;99.90
39849;DHT22;25518;47.878;15.914;2022-10-16T14:55:46;23.50;99.90
39849;DHT22;25518;47.878;15.914;2022-10-16T15:00:41;21.60;99.90
39849;DHT22;25518;47.878;15.914;2022-10-16T15:03:07;20.70;99.90
39849;DHT22;25518;47.878;15.914;2022-10-16T15:05:33;20.00;99.90
39849;DHT22;25518;47.878;15.914;2022-10-16T15:07:59;19.50;99.90
39849;DHT22;25518;47.878;15.914;2022-10-16T15:10:27;19.10;99.90
39849;DHT22;25518;47.878;15.914;2022-10-16T15:12:55;18.80;99.90
39849;DHT22;25518;47.878;15.914;2022-10-16T15:17:50;18.20;99.90
39849;DHT22;25518;47.878;15.914;2022-10-16T15:20:19;18.00;99.90
39849;DHT22;25518;47.878;15.914;2022-10-16T15:22:45;17.90;99.90
39849;DHT22;25518;47.878;15.914;2022-10-16T15:25:34;17.70;99.90
39849;DHT22;25518;47.878;15.914;2022-10-16T15:28:02;17.50;99.90
39849;DHT22;25518;47.878;15.914;2022-10-16T15:30:30;17.40;99.90
39849;DHT22;25518;47.878;15.914;2022-10-16T15:32:56;17.30;99.90
39849;DHT22;25518;47.878;15.914;2022-10-16T15:35:22;17.10;99.90
39849;DHT22;25518;47.878;15.914;2022-10-16T15:37:48;16.90;99.90
39849;DHT22;25518;47.878;15.914;2022-10-16T15:40:15;16.80;99.90
39849;DHT22;25518;47.878;15.914;2022-10-16T15:42:42;16.60;99.90
39849;DHT22;25518;47.878;15.914;2022-10-16T15:45:09;16.40;99.90
39849;DHT22;25518;47.878;15.914;2022-10-16T15:47:35;16.20;99.90
39849;DHT22;25518;47.878;15.914;2022-10-16T15:50:02;16.00;99.90
39849;DHT22;25518;47.878;15.914;2022-10-16T15:52:28;15.90;99.90
39849;DHT22;25518;47.878;15.914;2022-10-16T15:54:55;15.60;99.90
39849;DHT22;25518;47.878;15.914;2022-10-16T15:57:21;15.60;99.90
39849;DHT22;25518;47.878;15.914;2022-10-16T15:59:47;15.50;99.90
39849;DHT22;25518;47.878;15.914;2022-10-16T16:02:13;15.30;99.90
39849;DHT22;25518;47.878;15.914;2022-10-16T16:04:38;15.20;99.90
39849;DHT22;25518;47.878;15.914;2022-10-16T16:07:05;15.10;99.90
39849;DHT22;25518;47.878;15.914;2022-10-16T16:09:33;15.00;99.90
39849;DHT22;25518;47.878;15.914;2022-10-16T16:11:59;15.00;99.90
39849;DHT22;25518;47.878;15.914;2022-10-16T16:14:27;14.70;99.90
39849;DHT22;25518;47.878;15.914;2022-10-16T16:16:55;14.70;99.90
39849;DHT22;25518;47.878;15.914;2022-10-16T16:19:21;14.80;99.90
39849;DHT22;25518;47.878;15.914;2022-10-16T16:21:48;14.80;99.90
39849;DHT22;25518;47.878;15.914;2022-10-16T16:24:14;14.70;99.90
39849;DHT22;25518;47.878;15.914;2022-10-16T16:26:40;14.60;99.90
39849;DHT22;25518;47.878;15.914;2022-10-16T16:29:12;14.50;99.90
39849;DHT22;25518;47.878;15.914;2022-10-16T16:31:39;14.40;99.90
39849;DHT22;25518;47.878;15.914;2022-10-16T16:34:06;14.30;99.90
39849;DHT22;25518;47.878;15.914;2022-10-16T16:36:32;14.20;99.90
39849;DHT22;25518;47.878;15.914;2022-10-16T16:38:59;14.10;99.90
39849;DHT22;25518;47.878;15.914;2022-10-16T16:41:28;14.10;99.90
39849;DHT22;25518;47.878;15.914;2022-10-16T16:44:00;13.90;99.90
39849;DHT22;25518;47.878;15.914;2022-10-16T16:46:27;13.90;99.90
39849;DHT22;25518;47.878;15.914;2022-10-16T16:48:53;13.90;99.90
39849;DHT22;25518;47.878;15.914;2022-10-16T16:51:21;13.90;99.90
39849;DHT22;25518;47.878;15.914;2022-10-16T16:53:49;14.00;99.90
39849;DHT22;25518;47.878;15.914;2022-10-16T16:56:17;13.80;99.90
39849;DHT22;25518;47.878;15.914;2022-10-16T16:58:48;13.90;99.90
39849;DHT22;25518;47.878;15.914;2022-10-16T17:01:14;13.80;99.90
39849;DHT22;25518;47.878;15.914;2022-10-16T17:03:42;13.70;99.90
39849;DHT22;25518;47.878;15.914;2022-10-16T17:06:12;13.00;99.90
39849;DHT22;25518;47.878;15.914;2022-10-16T17:08:39;13.70;99.90
39849;DHT22;25518;47.878;15.914;2022-10-16T17:11:11;13.70;99.90
39849;DHT22;25518;47.878;15.914;2022-10-16T17:13:39;13.60;99.90
39849;DHT22;25518;47.878;15.914;2022-10-16T17:16:06;13.60;99.90
39849;DHT22;25518;47.878;15.914;2022-10-16T17:18:33;13.60;99.90
39849;DHT22;25518;47.878;15.914;2022-10-16T17:21:01;13.40;99.90
39849;DHT22;25518;47.878;15.914;2022-10-16T17:23:28;13.50;99.90
39849;DHT22;25518;47.878;15.914;2022-10-16T17:25:54;13.60;99.90
39849;DHT22;25518;47.878;15.914;2022-10-16T17:28:21;13.60;99.90
39849;DHT22;25518;47.878;15.914;2022-10-16T17:30:46;13.50;99.90
39849;DHT22;25518;47.878;15.914;2022-10-16T17:33:13;13.40;99.90
39849;DHT22;25518;47.878;15.914;2022-10-16T17:35:42;13.40;99.90
39849;DHT22;25518;47.878;15.914;2022-10-16T17:38:10;13.40;99.90
39849;DHT22;25518;47.878;15.914;2022-10-16T17:40:37;13.30;99.90
39849;DHT22;25518;47.878;15.914;2022-10-16T17:43:04;13.30;99.90
39849;DHT22;25518;47.878;15.914;2022-10-16T17:45:30;13.30;99.90
39849;DHT22;25518;47.878;15.914;2022-10-16T17:47:58;13.10;99.90
39849;DHT22;25518;47.878;15.914;2022-10-16T17:50:24;13.00;99.90
39849;DHT22;25518;47.878;15.914;2022-10-16T17:52:50;13.00;99.90
39849;DHT22;25518;47.878;15.914;2022-10-16T17:55:16;12.90;99.90
39849;DHT22;25518;47.878;15.914;2022-10-16T17:57:42;12.80;99.90
39849;DHT22;25518;47.878;15.914;2022-10-16T18:00:09;12.80;99.90
39849;DHT22;25518;47.878;15.914;2022-10-16T18:02:35;12.90;99.90
39849;DHT22;25518;47.878;15.914;2022-10-16T18:05:01;12.90;99.90
39849;DHT22;25518;47.878;15.914;2022-10-16T18:07:31;12.90;99.90
39849;DHT22;25518;47.878;15.914;2022-10-16T18:09:57;12.90;99.90
39849;DHT22;25518;47.878;15.914;2022-10-16T18:12:23;12.80;99.90
39849;DHT22;25518;47.878;15.914;2022-10-16T18:14:48;12.50;99.90
39849;DHT22;25518;47.878;15.914;2022-10-16T18:17:14;11.70;99.90
39849;DHT22;25518;47.878;15.914;2022-10-16T18:19:44;12.60;99.90
39849;DHT22;25518;47.878;15.914;2022-10-16T18:22:09;12.70;99.90
39849;DHT22;25518;47.878;15.914;2022-10-16T18:24:35;12.70;99.90
39849;DHT22;25518;47.878;15.914;2022-10-16T18:27:01;12.70;99.90
39849;DHT22;25518;47.878;15.914;2022-10-16T18:29:28;12.60;99.90
39849;DHT22;25518;47.878;15.914;2022-10-16T18:31:54;12.70;99.90
39849;DHT22;25518;47.878;15.914;2022-10-16T18:34:21;12.70;99.90
39849;DHT22;25518;47.878;15.914;2022-10-16T18:36:47;12.60;99.90
39849;DHT22;25518;47.878;15.914;2022-10-16T18:39:13;12.60;99.90
39849;DHT22;25518;47.878;15.914;2022-10-16T18:41:42;12.60;99.90
39849;DHT22;25518;47.878;15.914;2022-10-16T18:44:10;12.60;99.90
39849;DHT22;25518;47.878;15.914;2022-10-16T18:46:36;12.60;99.90
39849;DHT22;25518;47.878;15.914;2022-10-16T18:49:02;12.40;99.90
39849;DHT22;25518;47.878;15.914;2022-10-16T18:51:32;12.50;99.90
39849;DHT22;25518;47.878;15.914;2022-10-16T18:54:01;12.50;99.90
39849;DHT22;25518;47.878;15.914;2022-10-16T18:56:29;12.50;99.90
39849;DHT22;25518;47.878;15.914;2022-10-16T18:58:57;12.40;99.90
39849;DHT22;25518;47.878;15.914;2022-10-16T19:01:27;12.40;99.90
39849;DHT22;25518;47.878;15.914;2022-10-16T19:04:01;12.40;99.90
39849;DHT22;25518;47.878;15.914;2022-10-16T19:06:28;12.50;99.90
39849;DHT22;25518;47.878;15.914;2022-10-16T19:08:56;12.20;99.90
39849;DHT22;25518;47.878;15.914;2022-10-16T19:11:23;12.20;99.90
39849;DHT22;25518;47.878;15.914;2022-10-16T19:13:50;12.00;99.90
39849;DHT22;25518;47.878;15.914;2022-10-16T19:16:19;12.00;99.90
39849;DHT22;25518;47.878;15.914;2022-10-16T19:18:47;12.20;99.90
39849;DHT22;25518;47.878;15.914;2022-10-16T19:21:14;12.20;99.90
39849;DHT22;25518;47.878;15.914;2022-10-16T19:23:41;12.20;99.90
39849;DHT22;25518;47.878;15.914;2022-10-16T19:26:12;12.10;99.90
39849;DHT22;25518;47.878;15.914;2022-10-16T19:28:38;12.00;99.90
39849;DHT22;25518;47.878;15.914;2022-10-16T19:31:07;12.10;99.90
39849;DHT22;25518;47.878;15.914;2022-10-16T19:33:37;12.00;99.90
39849;DHT22;25518;47.878;15.914;2022-10-16T19:36:14;12.10;99.90
39849;DHT22;25518;47.878;15.914;2022-10-16T19:38:43;12.10;99.90
39849;DHT22;25518;47.878;15.914;2022-10-16T19:41:15;12.10;99.90
39849;DHT22;25518;47.878;15.914;2022-10-16T19:43:43;12.00;99.90
39849;DHT22;25518;47.878;15.914;2022-10-16T19:46:12;11.90;99.90
39849;DHT22;25518;47.878;15.914;2022-10-16T19:48:39;11.90;99.90
39849;DHT22;25518;47.878;15.914;2022-10-16T19:51:06;11.90;99.90
39849;DHT22;25518;47.878;15.914;2022-10-16T19:53:33;11.90;99.90
39849;DHT22;25518;47.878;15.914;2022-10-16T19:55:59;11.90;99.90
39849;DHT22;25518;47.878;15.914;2022-10-16T19:58:25;12.00;99.90
39849;DHT22;25518;47.878;15.914;2022-10-16T20:00:53;12.00;99.90
39849;DHT22;25518;47.878;15.914;2022-10-16T20:03:19;11.90;99.90
39849;DHT22;25518;47.878;15.914;2022-10-16T20:05:51;11.80;99.90
39849;DHT22;25518;47.878;15.914;2022-10-16T20:08:17;11.80;99.90
39849;DHT22;25518;47.878;15.914;2022-10-16T20:10:51;11.80;99.90
39849;DHT22;25518;47.878;15.914;2022-10-16T20:13:19;11.80;99.90
39849;DHT22;25518;47.878;15.914;2022-10-16T20:15:46;11.80;99.90
39849;DHT22;25518;47.878;15.914;2022-10-16T20:18:13;11.70;99.90
39849;DHT22;25518;47.878;15.914;2022-10-16T20:20:43;11.70;99.90
39849;DHT22;25518;47.878;15.914;2022-10-16T20:23:10;11.70;99.90
39849;DHT22;25518;47.878;15.914;2022-10-16T20:25:38;11.70;99.90
39849;DHT22;25518;47.878;15.914;2022-10-16T20:28:06;11.50;99.90
39849;DHT22;25518;47.878;15.914;2022-10-16T20:30:36;11.20;99.90
39849;DHT22;25518;47.878;15.914;2022-10-16T20:33:02;11.30;99.90
39849;DHT22;25518;47.878;15.914;2022-10-16T20:35:28;11.30;99.90
39849;DHT22;25518;47.878;15.914;2022-10-16T20:37:54;11.20;99.90
39849;DHT22;25518;47.878;15.914;2022-10-16T20:40:21;11.20;99.90
39849;DHT22;25518;47.878;15.914;2022-10-16T20:42:46;11.10;99.90
39849;DHT22;25518;47.878;15.914;2022-10-16T20:45:12;10.90;99.90
39849;DHT22;25518;47.878;15.914;2022-10-16T20:47:38;11.00;99.90
39849;DHT22;25518;47.878;15.914;2022-10-16T20:50:04;11.20;99.90
39849;DHT22;25518;47.878;15.914;2022-10-16T20:52:32;11.20;99.90
39849;DHT22;25518;47.878;15.914;2022-10-16T20:54:59;11.00;99.90
39849;DHT22;25518;47.878;15.914;2022-10-16T20:57:24;10.70;99.90
39849;DHT22;25518;47.878;15.914;2022-10-16T20:59:50;10.80;99.90
39849;DHT22;25518;47.878;15.914;2022-10-16T21:02:21;11.00;99.90
39849;DHT22;25518;47.878;15.914;2022-10-16T21:04:47;11.10;99.90
39849;DHT22;25518;47.878;15.914;2022-10-16T21:07:15;11.10;99.90
39849;DHT22;25518;47.878;15.914;2022-10-16T21:09:42;11.10;99.90
39849;DHT22;25518;47.878;15.914;2022-10-16T21:12:08;11.20;99.90
39849;DHT22;25518;47.878;15.914;2022-10-16T21:14:34;11.10;99.90
39849;DHT22;25518;47.878;15.914;2022-10-16T21:17:00;11.00;99.90
39849;DHT22;25518;47.878;15.914;2022-10-16T21:19:29;11.10;99.90
39849;DHT22;25518;47.878;15.914;2022-10-16T21:21:55;11.10;99.90
39849;DHT22;25518;47.878;15.914;2022-10-16T21:24:20;11.20;99.90
39849;DHT22;25518;47.878;15.914;2022-10-16T21:26:47;11.20;99.90
39849;DHT22;25518;47.878;15.914;2022-10-16T21:29:13;11.30;99.90
39849;DHT22;25518;47.878;15.914;2022-10-16T21:31:39;11.30;99.90
39849;DHT22;25518;47.878;15.914;2022-10-16T21:34:06;11.20;99.90
39849;DHT22;25518;47.878;15.914;2022-10-16T21:36:37;11.20;99.90
39849;DHT22;25518;47.878;15.914;2022-10-16T21:39:06;11.20;99.90
39849;DHT22;25518;47.878;15.914;2022-10-16T21:41:34;11.20;99.90
39849;DHT22;25518;47.878;15.914;2022-10-16T21:44:00;11.20;99.90
39849;DHT22;25518;47.878;15.914;2022-10-16T21:46:29;11.20;99.90
39849;DHT22;25518;47.878;15.914;2022-10-16T21:48:58;11.20;99.90
39849;DHT22;25518;47.878;15.914;2022-10-16T21:51:26;11.10;99.90
39849;DHT22;25518;47.878;15.914;2022-10-16T21:53:54;11.10;99.90
39849;DHT22;25518;47.878;15.914;2022-10-16T21:56:21;11.10;99.90
39849;DHT22;25518;47.878;15.914;2022-10-16T21:58:48;11.10;99.90
39849;DHT22;25518;47.878;15.914;2022-10-16T22:01:16;11.00;99.90
39849;DHT22;25518;47.878;15.914;2022-10-16T22:03:44;11.10;99.90
39849;DHT22;25518;47.878;15.914;2022-10-16T22:06:11;11.10;99.90
39849;DHT22;25518;47.878;15.914;2022-10-16T22:08:39;11.20;99.90
39849;DHT22;25518;47.878;15.914;2022-10-16T22:13:33;11.00;99.90
39849;DHT22;25518;47.878;15.914;2022-10-16T22:15:59;10.90;99.90
39849;DHT22;25518;47.878;15.914;2022-10-16T22:18:26;10.90;99.90
39849;DHT22;25518;47.878;15.914;2022-10-16T22:20:52;11.00;99.90
39849;DHT22;25518;47.878;15.914;2022-10-16T22:23:19;11.00;99.90
39849;DHT22;25518;47.878;15.914;2022-10-16T22:25:44;11.00;99.90
39849;DHT22;25518;47.878;15.914;2022-10-16T22:28:10;11.00;99.90
39849;DHT22;25518;47.878;15.914;2022-10-16T22:30:38;10.90;99.90
39849;DHT22;25518;47.878;15.914;2022-10-16T22:33:05;10.80;99.90
39849;DHT22;25518;47.878;15.914;2022-10-16T22:35:36;10.80;99.90
39849;DHT22;25518;47.878;15.914;2022-10-16T22:38:03;10.80;99.90
39849;DHT22;25518;47.878;15.914;2022-10-16T22:40:29;10.80;99.90
39849;DHT22;25518;47.878;15.914;2022-10-16T22:42:58;10.80;99.90
39849;DHT22;25518;47.878;15.914;2022-10-16T22:45:24;10.70;99.90
39849;DHT22;25518;47.878;15.914;2022-10-16T22:47:50;10.70;99.90
39849;DHT22;25518;47.878;15.914;2022-10-16T22:50:16;10.70;99.90
39849;DHT22;25518;47.878;15.914;2022-10-16T22:52:42;10.70;99.90
39849;DHT22;25518;47.878;15.914;2022-10-16T22:55:08;10.80;99.90
39849;DHT22;25518;47.878;15.914;2022-10-16T22:57:34;10.80;99.90
39849;DHT22;25518;47.878;15.914;2022-10-16T23:00:00;10.90;99.90
39849;DHT22;25518;47.878;15.914;2022-10-16T23:02:26;11.00;99.90
39849;DHT22;25518;47.878;15.914;2022-10-16T23:04:53;11.00;99.90
39849;DHT22;25518;47.878;15.914;2022-10-16T23:07:19;11.00;99.90
39849;DHT22;25518;47.878;15.914;2022-10-16T23:09:45;11.00;99.90
39849;DHT22;25518;47.878;15.914;2022-10-16T23:12:11;11.00;99.90
39849;DHT22;25518;47.878;15.914;2022-10-16T23:14:37;11.00;99.90
39849;DHT22;25518;47.878;15.914;2022-10-16T23:17:03;11.10;99.90
39849;DHT22;25518;47.878;15.914;2022-10-16T23:19:29;11.10;99.90
39849;DHT22;25518;47.878;15.914;2022-10-16T23:21:55;11.10;99.90
39849;DHT22;25518;47.878;15.914;2022-10-16T23:24:21;11.10;99.90
39849;DHT22;25518;47.878;15.914;2022-10-16T23:26:46;10.20;99.90
39849;DHT22;25518;47.878;15.914;2022-10-16T23:29:13;11.10;99.90
39849;DHT22;25518;47.878;15.914;2022-10-16T23:31:39;11.10;99.90
39849;DHT22;25518;47.878;15.914;2022-10-16T23:34:05;11.10;99.90
39849;DHT22;25518;47.878;15.914;2022-10-16T23:36:30;11.00;99.90
39849;DHT22;25518;47.878;15.914;2022-10-16T23:38:56;11.00;99.90
39849;DHT22;25518;47.878;15.914;2022-10-16T23:41:22;11.00;99.90
39849;DHT22;25518;47.878;15.914;2022-10-16T23:43:48;11.10;99.90
39849;DHT22;25518;47.878;15.914;2022-10-16T23:46:16;11.10;99.90
39849;DHT22;25518;47.878;15.914;2022-10-16T23:48:43;11.00;99.90
39849;DHT22;25518;47.878;15.914;2022-10-16T23:51:10;11.00;99.90
39849;DHT22;25518;47.878;15.914;2022-10-16T23:53:36;11.00;99.90
39849;DHT22;25518;47.878;15.914;2022-10-16T23:56:03;11.00;99.90
39849;DHT22;25518;47.878;15.914;2022-10-16T23:58:29;10.80;99.90
